sensor_id;sensor_type;location;lat;lon;timestamp;pressure;altitude;pressure_sealevel;temperature;humidity
83095;BME280;72967;43.674;6.976;2024-01-07T00:01:13;94815.94;;;9.38;59.50
83095;BME280;72967;43.674;6.976;2024-01-07T00:03:42;94813.91;;;9.18;58.75
83095;BME280;72967;43.674;6.976;2024-01-07T00:06:08;94815.09;;;9.20;59.38
83095;BME280;72967;43.674;6.976;2024-01-07T00:08:33;94813.16;;;9.24;60.29
83095;BME280;72967;43.674;6.976;2024-01-07T00:10:58;94819.06;;;9.30;60.00
83095;BME280;72967;43.674;6.976;2024-01-07T00:13:24;94810.50;;;9.46;60.74
83095;BME280;72967;43.674;6.976;2024-01-07T00:15:49;94820.31;;;9.47;59.97
83095;BME280;72967;43.674;6.976;2024-01-07T00:18:15;94815.94;;;9.38;59.31
83095;BME280;72967;43.674;6.976;2024-01-07T00:20:40;94823.47;;;9.52;58.85
83095;BME280;72967;43.674;6.976;2024-01-07T00:23:05;94825.03;;;9.53;58.75
83095;BME280;72967;43.674;6.976;2024-01-07T00:25:31;94825.03;;;9.57;58.20
83095;BME280;72967;43.674;6.976;2024-01-07T00:27:56;94823.09;;;9.61;59.28
83095;BME280;72967;43.674;6.976;2024-01-07T00:30:22;94830.16;;;9.69;58.83
83095;BME280;72967;43.674;6.976;2024-01-07T00:32:47;94822.72;;;9.73;58.92
83095;BME280;72967;43.674;6.976;2024-01-07T00:35:16;94810.94;;;9.65;58.34
83095;BME280;72967;43.674;6.976;2024-01-07T00:37:41;94827.84;;;9.78;58.75
83095;BME280;72967;43.674;6.976;2024-01-07T00:40:07;94820.75;;;9.70;59.08
83095;BME280;72967;43.674;6.976;2024-01-07T00:42:33;94816.47;;;9.72;58.08
83095;BME280;72967;43.674;6.976;2024-01-07T00:44:58;94832.53;;;9.85;58.39
83095;BME280;72967;43.674;6.976;2024-01-07T00:47:24;94834.53;;;9.88;58.74
83095;BME280;72967;43.674;6.976;2024-01-07T00:49:49;94834.13;;;9.93;59.56
83095;BME280;72967;43.674;6.976;2024-01-07T00:52:15;94844.31;;;9.92;59.08
83095;BME280;72967;43.674;6.976;2024-01-07T00:54:40;94842.41;;;10.00;59.38
83095;BME280;72967;43.674;6.976;2024-01-07T00:57:06;94837.28;;;9.84;58.48
83095;BME280;72967;43.674;6.976;2024-01-07T00:59:31;94850.56;;;9.71;56.81
83095;BME280;72967;43.674;6.976;2024-01-07T01:01:57;94839.97;;;9.73;57.35
83095;BME280;72967;43.674;6.976;2024-01-07T01:04:22;94842.69;;;9.66;56.73
83095;BME280;72967;43.674;6.976;2024-01-07T01:06:47;94833.31;;;9.71;56.04
83095;BME280;72967;43.674;6.976;2024-01-07T01:09:13;94845.81;;;9.65;55.50
83095;BME280;72967;43.674;6.976;2024-01-07T01:11:38;94852.09;;;9.62;57.31
83095;BME280;72967;43.674;6.976;2024-01-07T01:14:04;94852.47;;;9.57;56.83
83095;BME280;72967;43.674;6.976;2024-01-07T01:16:29;94852.44;;;9.50;56.87
83095;BME280;72967;43.674;6.976;2024-01-07T01:18:55;94855.97;;;9.54;57.00
83095;BME280;72967;43.674;6.976;2024-01-07T01:21:20;94858.75;;;9.57;57.60
83095;BME280;72967;43.674;6.976;2024-01-07T01:23:46;94861.91;;;9.63;56.55
83095;BME280;72967;43.674;6.976;2024-01-07T01:26:12;94856.00;;;9.61;56.54
83095;BME280;72967;43.674;6.976;2024-01-07T01:28:37;94854.03;;;9.58;55.59
83095;BME280;72967;43.674;6.976;2024-01-07T01:31:03;94855.59;;;9.55;55.74
83095;BME280;72967;43.674;6.976;2024-01-07T01:33:28;94854.84;;;9.58;56.34
83095;BME280;72967;43.674;6.976;2024-01-07T01:35:54;94852.88;;;9.66;57.04
83095;BME280;72967;43.674;6.976;2024-01-07T01:38:19;94855.63;;;9.66;57.00
83095;BME280;72967;43.674;6.976;2024-01-07T01:40:51;94839.91;;;9.59;56.66
83095;BME280;72967;43.674;6.976;2024-01-07T01:43:27;94857.16;;;9.60;56.18
83095;BME280;72967;43.674;6.976;2024-01-07T01:45:54;94849.72;;;9.60;57.04
83095;BME280;72967;43.674;6.976;2024-01-07T01:48:19;94841.84;;;9.48;56.83
83095;BME280;72967;43.674;6.976;2024-01-07T01:50:47;94854.47;;;9.70;56.80
83095;BME280;72967;43.674;6.976;2024-01-07T01:53:12;94861.50;;;9.64;57.09
83095;BME280;72967;43.674;6.976;2024-01-07T01:55:38;94864.22;;;9.61;56.42
83095;BME280;72967;43.674;6.976;2024-01-07T01:58:04;94845.38;;;9.49;58.17
83095;BME280;72967;43.674;6.976;2024-01-07T02:00:31;94859.09;;;9.49;57.11
83095;BME280;72967;43.674;6.976;2024-01-07T02:02:56;94866.97;;;9.64;56.78
83095;BME280;72967;43.674;6.976;2024-01-07T02:05:22;94865.44;;;9.67;57.44
83095;BME280;72967;43.674;6.976;2024-01-07T02:07:48;94870.16;;;9.80;57.60
83095;BME280;72967;43.674;6.976;2024-01-07T02:10:14;94869.41;;;9.87;56.63
83095;BME280;72967;43.674;6.976;2024-01-07T02:12:39;94866.25;;;9.85;55.84
83095;BME280;72967;43.674;6.976;2024-01-07T02:15:05;94869.44;;;9.94;56.68
83095;BME280;72967;43.674;6.976;2024-01-07T02:17:31;94867.44;;;9.91;55.80
83095;BME280;72967;43.674;6.976;2024-01-07T02:19:56;94863.94;;;9.94;57.65
83095;BME280;72967;43.674;6.976;2024-01-07T02:22:22;94872.59;;;10.10;55.88
83095;BME280;72967;43.674;6.976;2024-01-07T02:24:47;94865.16;;;10.14;56.64
83095;BME280;72967;43.674;6.976;2024-01-07T02:27:13;94867.50;;;10.12;57.14
83095;BME280;72967;43.674;6.976;2024-01-07T02:29:38;94876.13;;;10.07;56.16
83095;BME280;72967;43.674;6.976;2024-01-07T02:32:04;94869.81;;;9.96;57.31
83095;BME280;72967;43.674;6.976;2024-01-07T02:34:30;94868.63;;;9.90;57.51
83095;BME280;72967;43.674;6.976;2024-01-07T02:36:55;94872.16;;;9.91;57.74
83095;BME280;72967;43.674;6.976;2024-01-07T02:39:21;94874.91;;;9.87;57.42
83095;BME280;72967;43.674;6.976;2024-01-07T02:41:46;94874.13;;;9.97;57.97
83095;BME280;72967;43.674;6.976;2024-01-07T02:44:12;94873.75;;;10.02;57.14
83095;BME280;72967;43.674;6.976;2024-01-07T02:46:38;94874.94;;;10.08;56.94
83095;BME280;72967;43.674;6.976;2024-01-07T02:49:03;94870.66;;;10.14;57.24
83095;BME280;72967;43.674;6.976;2024-01-07T02:51:29;94879.28;;;10.13;57.32
83095;BME280;72967;43.674;6.976;2024-01-07T02:53:54;94870.63;;;10.11;55.11
83095;BME280;72967;43.674;6.976;2024-01-07T02:56:19;94870.63;;;10.11;56.60
83095;BME280;72967;43.674;6.976;2024-01-07T02:58:45;94878.06;;;10.07;57.61
83095;BME280;72967;43.674;6.976;2024-01-07T03:01:10;94879.28;;;10.09;56.86
83095;BME280;72967;43.674;6.976;2024-01-07T03:03:37;94881.59;;;10.11;57.48
83095;BME280;72967;43.674;6.976;2024-01-07T03:06:03;94878.88;;;10.14;57.94
83095;BME280;72967;43.674;6.976;2024-01-07T03:08:28;94887.88;;;10.11;58.08
83095;BME280;72967;43.674;6.976;2024-01-07T03:10:54;94884.81;;;10.23;58.86
83095;BME280;72967;43.674;6.976;2024-01-07T03:13:19;94882.84;;;10.31;59.87
83095;BME280;72967;43.674;6.976;2024-01-07T03:15:45;94885.22;;;10.33;59.64
83095;BME280;72967;43.674;6.976;2024-01-07T03:18:10;94885.22;;;10.33;60.27
83095;BME280;72967;43.674;6.976;2024-01-07T03:20:36;94882.84;;;10.31;59.32
83095;BME280;72967;43.674;6.976;2024-01-07T03:23:01;94881.69;;;10.29;59.00
83095;BME280;72967;43.674;6.976;2024-01-07T03:25:27;94883.25;;;10.37;59.44
83095;BME280;72967;43.674;6.976;2024-01-07T03:27:52;94885.22;;;10.40;60.35
83095;BME280;72967;43.674;6.976;2024-01-07T03:30:17;94889.94;;;10.36;60.04
83095;BME280;72967;43.674;6.976;2024-01-07T03:32:43;94890.31;;;10.27;58.91
83095;BME280;72967;43.674;6.976;2024-01-07T03:35:08;94889.13;;;10.32;59.05
83095;BME280;72967;43.674;6.976;2024-01-07T03:37:34;94892.66;;;10.43;59.37
83095;BME280;72967;43.674;6.976;2024-01-07T03:40:00;94886.41;;;10.35;60.25
83095;BME280;72967;43.674;6.976;2024-01-07T03:42:25;94888.34;;;10.38;60.85
83095;BME280;72967;43.674;6.976;2024-01-07T03:44:51;94888.75;;;10.40;60.10
83095;BME280;72967;43.674;6.976;2024-01-07T03:47:16;94890.31;;;10.38;60.79
83095;BME280;72967;43.674;6.976;2024-01-07T03:49:42;94893.84;;;10.28;61.64
83095;BME280;72967;43.674;6.976;2024-01-07T03:52:07;94899.31;;;10.28;61.04
83095;BME280;72967;43.674;6.976;2024-01-07T03:54:33;94896.19;;;10.26;60.86
83095;BME280;72967;43.674;6.976;2024-01-07T03:56:59;94895.00;;;10.23;61.52
83095;BME280;72967;43.674;6.976;2024-01-07T03:59:24;94900.13;;;10.25;62.34
83095;BME280;72967;43.674;6.976;2024-01-07T04:01:55;94894.22;;;10.22;62.17
83095;BME280;72967;43.674;6.976;2024-01-07T04:04:20;94902.03;;;10.13;62.18
83095;BME280;72967;43.674;6.976;2024-01-07T04:06:46;94909.91;;;10.18;62.10
83095;BME280;72967;43.674;6.976;2024-01-07T04:09:11;94911.06;;;10.17;61.66
83095;BME280;72967;43.674;6.976;2024-01-07T04:11:40;94907.19;;;10.26;62.03
83095;BME280;72967;43.674;6.976;2024-01-07T04:14:06;94896.56;;;10.17;62.69
83095;BME280;72967;43.674;6.976;2024-01-07T04:16:32;94908.75;;;10.23;62.91
83095;BME280;72967;43.674;6.976;2024-01-07T04:18:57;94919.72;;;10.19;63.18
83095;BME280;72967;43.674;6.976;2024-01-07T04:21:22;94916.19;;;10.19;63.47
83095;BME280;72967;43.674;6.976;2024-01-07T04:23:48;94910.66;;;10.15;63.67
83095;BME280;72967;43.674;6.976;2024-01-07T04:26:13;94909.84;;;10.11;64.19
83095;BME280;72967;43.674;6.976;2024-01-07T04:28:41;94906.72;;;10.09;64.13
83095;BME280;72967;43.674;6.976;2024-01-07T04:31:07;94901.59;;;9.97;63.08
83095;BME280;72967;43.674;6.976;2024-01-07T04:33:32;94902.78;;;10.00;63.95
83095;BME280;72967;43.674;6.976;2024-01-07T04:35:58;94905.53;;;10.00;63.76
83095;BME280;72967;43.674;6.976;2024-01-07T04:38:24;94905.13;;;9.94;64.10
83095;BME280;72967;43.674;6.976;2024-01-07T04:40:50;94894.13;;;9.84;64.90
83095;BME280;72967;43.674;6.976;2024-01-07T04:43:17;94892.53;;;9.90;63.73
83095;BME280;72967;43.674;6.976;2024-01-07T04:45:42;94897.66;;;9.84;64.16
83095;BME280;72967;43.674;6.976;2024-01-07T04:48:08;94898.03;;;9.90;64.14
83095;BME280;72967;43.674;6.976;2024-01-07T04:50:33;94901.94;;;9.85;64.18
83095;BME280;72967;43.674;6.976;2024-01-07T04:52:59;94902.34;;;9.87;64.43
83095;BME280;72967;43.674;6.976;2024-01-07T04:55:24;94899.22;;;9.89;64.53
83095;BME280;72967;43.674;6.976;2024-01-07T04:57:50;94896.03;;;9.76;65.05
83095;BME280;72967;43.674;6.976;2024-01-07T05:00:16;94891.72;;;9.75;65.02
83095;BME280;72967;43.674;6.976;2024-01-07T05:02:41;94897.19;;;9.75;64.90
83095;BME280;72967;43.674;6.976;2024-01-07T05:05:10;94893.28;;;9.76;64.58
83095;BME280;72967;43.674;6.976;2024-01-07T05:07:35;94899.56;;;9.76;64.70
83095;BME280;72967;43.674;6.976;2024-01-07T05:10:00;94902.31;;;9.73;65.06
83095;BME280;72967;43.674;6.976;2024-01-07T05:12:26;94901.47;;;9.65;66.04
83095;BME280;72967;43.674;6.976;2024-01-07T05:14:52;94899.09;;;9.60;65.91
83095;BME280;72967;43.674;6.976;2024-01-07T05:17:17;94902.59;;;9.54;66.80
83095;BME280;72967;43.674;6.976;2024-01-07T05:19:43;94902.59;;;9.47;65.79
83095;BME280;72967;43.674;6.976;2024-01-07T05:22:08;94906.50;;;9.46;65.39
83095;BME280;72967;43.674;6.976;2024-01-07T05:24:36;94911.19;;;9.42;65.05
83095;BME280;72967;43.674;6.976;2024-01-07T05:27:03;94912.72;;;9.39;65.58
83095;BME280;72967;43.674;6.976;2024-01-07T05:29:29;94910.75;;;9.32;66.46
83095;BME280;72967;43.674;6.976;2024-01-07T05:31:54;94904.06;;;9.30;66.63
83095;BME280;72967;43.674;6.976;2024-01-07T05:34:20;94907.19;;;9.28;65.43
83095;BME280;72967;43.674;6.976;2024-01-07T05:36:45;94902.13;;;9.34;66.12
83095;BME280;72967;43.674;6.976;2024-01-07T05:39:10;94906.44;;;9.35;64.39
83095;BME280;72967;43.674;6.976;2024-01-07T05:41:39;94904.47;;;9.35;65.77
83095;BME280;72967;43.674;6.976;2024-01-07T05:44:06;94901.31;;;9.33;64.74
83095;BME280;72967;43.674;6.976;2024-01-07T05:46:32;94905.66;;;9.34;64.44
83095;BME280;72967;43.674;6.976;2024-01-07T05:48:58;94906.84;;;9.37;64.49
83095;BME280;72967;43.674;6.976;2024-01-07T05:51:24;94906.81;;;9.33;63.69
83095;BME280;72967;43.674;6.976;2024-01-07T05:53:49;94909.56;;;9.33;64.00
83095;BME280;72967;43.674;6.976;2024-01-07T05:56:14;94913.13;;;9.37;64.00
83095;BME280;72967;43.674;6.976;2024-01-07T05:58:40;94908.81;;;9.40;64.13
83095;BME280;72967;43.674;6.976;2024-01-07T06:01:07;94917.81;;;9.41;64.12
83095;BME280;72967;43.674;6.976;2024-01-07T06:03:33;94923.19;;;9.19;61.94
83095;BME280;72967;43.674;6.976;2024-01-07T06:05:59;94918.00;;;9.07;62.32
83095;BME280;72967;43.674;6.976;2024-01-07T06:08:28;94928.16;;;8.96;62.99
83095;BME280;72967;43.674;6.976;2024-01-07T06:10:53;94910.94;;;8.99;62.28
83095;BME280;72967;43.674;6.976;2024-01-07T06:13:19;94921.16;;;9.09;62.65
83095;BME280;72967;43.674;6.976;2024-01-07T06:15:44;94922.75;;;9.10;61.51
83095;BME280;72967;43.674;6.976;2024-01-07T06:18:10;94926.28;;;9.14;61.83
83095;BME280;72967;43.674;6.976;2024-01-07T06:20:36;94929.75;;;9.01;61.35
83095;BME280;72967;43.674;6.976;2024-01-07T06:23:01;94926.13;;;8.89;62.00
83095;BME280;72967;43.674;6.976;2024-01-07T06:25:26;94928.78;;;8.79;61.27
83095;BME280;72967;43.674;6.976;2024-01-07T06:27:52;94928.34;;;8.73;61.18
83095;BME280;72967;43.674;6.976;2024-01-07T06:30:17;94924.06;;;8.76;61.01
83095;BME280;72967;43.674;6.976;2024-01-07T06:32:44;94928.78;;;8.79;60.58
83095;BME280;72967;43.674;6.976;2024-01-07T06:35:10;94933.13;;;8.83;59.93
83095;BME280;72967;43.674;6.976;2024-01-07T06:37:36;94930.47;;;8.94;61.72
83095;BME280;72967;43.674;6.976;2024-01-07T06:40:01;94931.28;;;8.98;61.70
83095;BME280;72967;43.674;6.976;2024-01-07T06:42:27;94929.31;;;8.99;61.59
83095;BME280;72967;43.674;6.976;2024-01-07T06:44:53;94934.44;;;9.00;61.69
83095;BME280;72967;43.674;6.976;2024-01-07T06:47:18;94936.44;;;9.07;60.08
83095;BME280;72967;43.674;6.976;2024-01-07T06:49:44;94940.22;;;8.91;60.69
83095;BME280;72967;43.674;6.976;2024-01-07T06:52:10;94939.50;;;8.98;60.71
83095;BME280;72967;43.674;6.976;2024-01-07T06:54:36;94943.28;;;8.79;61.51
83095;BME280;72967;43.674;6.976;2024-01-07T06:57:01;94941.88;;;8.56;62.54
83095;BME280;72967;43.674;6.976;2024-01-07T06:59:27;94941.88;;;8.56;61.95
83095;BME280;72967;43.674;6.976;2024-01-07T07:01:53;94939.63;;;8.65;61.83
83095;BME280;72967;43.674;6.976;2024-01-07T07:04:20;94949.16;;;8.34;62.34
83095;BME280;72967;43.674;6.976;2024-01-07T07:06:47;94944.50;;;8.41;62.47
83095;BME280;72967;43.674;6.976;2024-01-07T07:09:12;94941.59;;;8.24;61.94
83095;BME280;72967;43.674;6.976;2024-01-07T07:11:38;94941.59;;;8.24;61.71
83095;BME280;72967;43.674;6.976;2024-01-07T07:14:03;94944.25;;;8.20;62.23
83095;BME280;72967;43.674;6.976;2024-01-07T07:16:29;94945.47;;;8.23;62.19
83095;BME280;72967;43.674;6.976;2024-01-07T07:18:54;94952.09;;;8.18;61.73
83095;BME280;72967;43.674;6.976;2024-01-07T07:21:20;94941.97;;;8.26;62.72
83095;BME280;72967;43.674;6.976;2024-01-07T07:23:45;94956.97;;;8.35;62.02
83095;BME280;72967;43.674;6.976;2024-01-07T07:26:10;94955.88;;;8.43;62.81
83095;BME280;72967;43.674;6.976;2024-01-07T07:28:36;94954.31;;;8.42;63.18
83095;BME280;72967;43.674;6.976;2024-01-07T07:31:02;94959.00;;;8.45;62.16
83095;BME280;72967;43.674;6.976;2024-01-07T07:33:27;94955.19;;;8.53;61.82
83095;BME280;72967;43.674;6.976;2024-01-07T07:35:53;94964.19;;;8.54;61.03
83095;BME280;72967;43.674;6.976;2024-01-07T07:38:18;94958.66;;;8.50;61.34
83095;BME280;72967;43.674;6.976;2024-01-07T07:40:43;94968.00;;;8.46;62.53
83095;BME280;72967;43.674;6.976;2024-01-07T07:43:10;94968.41;;;8.44;62.46
83095;BME280;72967;43.674;6.976;2024-01-07T07:45:35;94957.41;;;8.41;62.44
83095;BME280;72967;43.674;6.976;2024-01-07T07:48:01;94974.66;;;8.45;62.06
83095;BME280;72967;43.674;6.976;2024-01-07T07:50:26;94962.63;;;8.53;61.58
83095;BME280;72967;43.674;6.976;2024-01-07T07:52:52;94975.28;;;8.68;61.41
83095;BME280;72967;43.674;6.976;2024-01-07T07:55:18;94983.84;;;8.67;60.12
83095;BME280;72967;43.674;6.976;2024-01-07T07:57:44;94987.75;;;8.66;60.31
83095;BME280;72967;43.674;6.976;2024-01-07T08:00:10;94980.38;;;8.70;60.20
83095;BME280;72967;43.674;6.976;2024-01-07T08:02:38;94988.19;;;8.68;58.74
83095;BME280;72967;43.674;6.976;2024-01-07T08:05:03;94986.56;;;8.63;58.80
83095;BME280;72967;43.674;6.976;2024-01-07T08:07:29;94997.53;;;8.63;58.89
83095;BME280;72967;43.674;6.976;2024-01-07T08:09:54;95002.63;;;8.65;58.28
83095;BME280;72967;43.674;6.976;2024-01-07T08:12:22;94997.88;;;8.58;57.91
83095;BME280;72967;43.674;6.976;2024-01-07T08:14:47;94999.03;;;8.57;57.56
83095;BME280;72967;43.674;6.976;2024-01-07T08:17:13;95006.31;;;8.42;57.42
83095;BME280;72967;43.674;6.976;2024-01-07T08:19:38;95013.84;;;8.49;57.50
83095;BME280;72967;43.674;6.976;2024-01-07T08:22:04;95009.88;;;8.46;57.14
83095;BME280;72967;43.674;6.976;2024-01-07T08:24:29;95012.28;;;8.51;57.22
83095;BME280;72967;43.674;6.976;2024-01-07T08:26:55;95009.66;;;8.66;56.85
83095;BME280;72967;43.674;6.976;2024-01-07T08:29:20;95005.31;;;8.58;56.63
83095;BME280;72967;43.674;6.976;2024-01-07T08:31:45;95008.50;;;8.67;56.92
83095;BME280;72967;43.674;6.976;2024-01-07T08:34:11;95007.78;;;8.70;56.73
83095;BME280;72967;43.674;6.976;2024-01-07T08:36:36;95013.94;;;8.60;56.28
83095;BME280;72967;43.674;6.976;2024-01-07T08:39:02;95016.38;;;8.72;56.85
83095;BME280;72967;43.674;6.976;2024-01-07T08:41:27;95012.50;;;8.76;56.63
83095;BME280;72967;43.674;6.976;2024-01-07T08:43:52;95023.13;;;8.81;56.00
83095;BME280;72967;43.674;6.976;2024-01-07T08:46:21;95023.88;;;8.75;56.82
83095;BME280;72967;43.674;6.976;2024-01-07T08:48:47;95017.66;;;8.81;56.78
83095;BME280;72967;43.674;6.976;2024-01-07T08:51:12;95005.06;;;8.73;56.71
83095;BME280;72967;43.674;6.976;2024-01-07T08:53:39;95025.25;;;9.02;56.27
83095;BME280;72967;43.674;6.976;2024-01-07T08:56:04;95024.56;;;9.12;55.56
83095;BME280;72967;43.674;6.976;2024-01-07T08:58:32;95026.19;;;9.17;56.21
83095;BME280;72967;43.674;6.976;2024-01-07T09:00:57;95023.94;;;9.33;54.90
83095;BME280;72967;43.674;6.976;2024-01-07T09:03:22;95031.03;;;9.37;55.16
83095;BME280;72967;43.674;6.976;2024-01-07T09:05:48;95025.59;;;9.48;54.80
83095;BME280;72967;43.674;6.976;2024-01-07T09:08:13;95033.09;;;9.51;54.07
83095;BME280;72967;43.674;6.976;2024-01-07T09:10:40;95030.78;;;9.60;54.42
83095;BME280;72967;43.674;6.976;2024-01-07T09:13:05;95031.63;;;9.68;54.18
83095;BME280;72967;43.674;6.976;2024-01-07T09:15:31;95033.16;;;9.65;54.25
83095;BME280;72967;43.674;6.976;2024-01-07T09:17:56;95034.38;;;9.68;54.10
83095;BME280;72967;43.674;6.976;2024-01-07T09:20:22;95030.09;;;9.74;55.69
83095;BME280;72967;43.674;6.976;2024-01-07T09:22:47;95031.25;;;9.73;54.24
83095;BME280;72967;43.674;6.976;2024-01-07T09:25:13;95032.88;;;9.85;53.30
83095;BME280;72967;43.674;6.976;2024-01-07T09:27:39;95036.03;;;9.87;53.04
83095;BME280;72967;43.674;6.976;2024-01-07T09:30:04;95025.41;;;9.78;54.09
83095;BME280;72967;43.674;6.976;2024-01-07T09:32:31;95045.84;;;9.91;53.25
83095;BME280;72967;43.674;6.976;2024-01-07T09:34:56;95045.03;;;9.84;54.08
83095;BME280;72967;43.674;6.976;2024-01-07T09:37:23;95047.84;;;9.98;52.79
83095;BME280;72967;43.674;6.976;2024-01-07T09:39:48;95041.19;;;9.99;53.48
83095;BME280;72967;43.674;6.976;2024-01-07T09:42:18;95053.41;;;10.12;52.94
83095;BME280;72967;43.674;6.976;2024-01-07T09:44:44;95046.81;;;10.20;52.51
83095;BME280;72967;43.674;6.976;2024-01-07T09:47:13;95042.81;;;10.10;53.41
83095;BME280;72967;43.674;6.976;2024-01-07T09:49:40;95047.13;;;10.11;53.36
83095;BME280;72967;43.674;6.976;2024-01-07T09:52:06;95040.94;;;10.21;52.82
83095;BME280;72967;43.674;6.976;2024-01-07T09:54:33;95050.00;;;10.33;52.09
83095;BME280;72967;43.674;6.976;2024-01-07T09:57:02;95049.19;;;10.25;52.37
83095;BME280;72967;43.674;6.976;2024-01-07T09:59:29;95054.31;;;10.30;51.72
83095;BME280;72967;43.674;6.976;2024-01-07T10:01:56;95047.66;;;10.38;51.57
83095;BME280;72967;43.674;6.976;2024-01-07T10:04:26;95049.69;;;10.55;53.19
83095;BME280;72967;43.674;6.976;2024-01-07T10:06:52;95054.06;;;10.67;51.67
83095;BME280;72967;43.674;6.976;2024-01-07T10:09:19;95057.97;;;10.70;51.53
83095;BME280;72967;43.674;6.976;2024-01-07T10:11:45;95063.91;;;10.89;50.45
83095;BME280;72967;43.674;6.976;2024-01-07T10:14:10;95060.41;;;11.03;50.68
83095;BME280;72967;43.674;6.976;2024-01-07T10:16:36;95056.06;;;10.91;50.39
83095;BME280;72967;43.674;6.976;2024-01-07T10:19:01;95059.63;;;11.20;50.42
83095;BME280;72967;43.674;6.976;2024-01-07T10:21:27;95056.88;;;11.41;52.23
83095;BME280;72967;43.674;6.976;2024-01-07T10:26:40;95066.72;;;11.49;50.05
83095;BME280;72967;43.674;6.976;2024-01-07T10:29:06;95063.97;;;11.60;50.73
83095;BME280;72967;43.674;6.976;2024-01-07T10:31:33;95064.34;;;11.59;49.49
83095;BME280;72967;43.674;6.976;2024-01-07T10:33:58;95056.06;;;11.62;50.78
83095;BME280;72967;43.674;6.976;2024-01-07T10:36:24;95063.56;;;11.58;50.56
83095;BME280;72967;43.674;6.976;2024-01-07T10:38:51;95063.13;;;11.67;50.42
83095;BME280;72967;43.674;6.976;2024-01-07T10:41:19;95058.03;;;11.83;50.25
83095;BME280;72967;43.674;6.976;2024-01-07T10:43:48;95063.53;;;11.83;49.45
83095;BME280;72967;43.674;6.976;2024-01-07T10:46:15;95044.28;;;11.62;49.89
83095;BME280;72967;43.674;6.976;2024-01-07T10:48:50;95060.00;;;11.68;51.68
83095;BME280;72967;43.674;6.976;2024-01-07T10:51:20;95058.06;;;11.79;51.40
83095;BME280;72967;43.674;6.976;2024-01-07T10:53:51;95060.41;;;11.81;50.05
83095;BME280;72967;43.674;6.976;2024-01-07T10:56:22;95058.44;;;11.67;50.55
83095;BME280;72967;43.674;6.976;2024-01-07T10:58:50;95052.94;;;11.74;50.74
83095;BME280;72967;43.674;6.976;2024-01-07T11:01:17;95050.94;;;11.89;50.47
83095;BME280;72967;43.674;6.976;2024-01-07T11:04:04;95056.81;;;11.98;50.15
83095;BME280;72967;43.674;6.976;2024-01-07T11:06:32;95058.03;;;11.90;50.79
83095;BME280;72967;43.674;6.976;2024-01-07T11:11:44;95060.78;;;11.90;53.76
83095;BME280;72967;43.674;6.976;2024-01-07T11:14:42;95060.34;;;12.02;57.10
83095;BME280;72967;43.674;6.976;2024-01-07T11:17:11;95058.75;;;12.08;58.54
83095;BME280;72967;43.674;6.976;2024-01-07T11:19:37;95048.94;;;12.07;58.65
83095;BME280;72967;43.674;6.976;2024-01-07T11:22:24;95046.97;;;12.08;59.21
83095;BME280;72967;43.674;6.976;2024-01-07T11:24:53;95051.31;;;12.05;59.25
83095;BME280;72967;43.674;6.976;2024-01-07T11:27:21;95054.84;;;12.06;59.23
83095;BME280;72967;43.674;6.976;2024-01-07T11:29:56;95056.81;;;12.09;59.80
83095;BME280;72967;43.674;6.976;2024-01-07T11:32:28;95041.50;;;12.01;61.12
83095;BME280;72967;43.674;6.976;2024-01-07T11:34:54;95062.28;;;12.19;61.00
83095;BME280;72967;43.674;6.976;2024-01-07T11:37:21;95048.53;;;12.16;60.35
83095;BME280;72967;43.674;6.976;2024-01-07T11:39:50;95056.75;;;12.23;60.62
83095;BME280;72967;43.674;6.976;2024-01-07T11:42:16;95051.25;;;12.19;61.11
83095;BME280;72967;43.674;6.976;2024-01-07T11:44:46;95059.13;;;12.21;61.71
83095;BME280;72967;43.674;6.976;2024-01-07T11:47:12;95048.94;;;12.11;61.84
83095;BME280;72967;43.674;6.976;2024-01-07T11:49:39;95050.09;;;12.13;61.83
83095;BME280;72967;43.674;6.976;2024-01-07T11:52:04;95052.47;;;12.08;61.11
83095;BME280;72967;43.674;6.976;2024-01-07T11:54:31;95048.16;;;12.10;62.08
83095;BME280;72967;43.674;6.976;2024-01-07T11:56:56;95047.75;;;12.08;61.61
83095;BME280;72967;43.674;6.976;2024-01-07T11:59:23;95041.88;;;11.99;61.76
83095;BME280;72967;43.674;6.976;2024-01-07T12:01:48;95037.94;;;12.00;61.93
83095;BME280;72967;43.674;6.976;2024-01-07T12:04:14;95039.91;;;12.00;61.71
83095;BME280;72967;43.674;6.976;2024-01-07T12:06:40;95045.03;;;12.01;60.43
83095;BME280;72967;43.674;6.976;2024-01-07T12:09:05;95036.75;;;11.98;60.54
83095;BME280;72967;43.674;6.976;2024-01-07T12:11:31;95037.94;;;12.04;60.47
83095;BME280;72967;43.674;6.976;2024-01-07T12:13:57;95034.78;;;12.05;60.31
83095;BME280;72967;43.674;6.976;2024-01-07T12:16:23;95030.47;;;11.93;59.65
83095;BME280;72967;43.674;6.976;2024-01-07T12:18:48;95038.72;;;11.97;59.42
83095;BME280;72967;43.674;6.976;2024-01-07T12:21:23;95037.56;;;12.02;58.63
83095;BME280;72967;43.674;6.976;2024-01-07T12:23:49;95030.84;;;11.99;58.11
83095;BME280;72967;43.674;6.976;2024-01-07T12:26:16;95021.44;;;11.97;58.42
83095;BME280;72967;43.674;6.976;2024-01-07T12:28:42;95025.34;;;11.99;58.49
83095;BME280;72967;43.674;6.976;2024-01-07T12:31:08;95028.88;;;12.07;57.81
83095;BME280;72967;43.674;6.976;2024-01-07T12:33:37;95032.81;;;12.06;56.37
83095;BME280;72967;43.674;6.976;2024-01-07T12:36:03;95031.63;;;12.07;55.45
83095;BME280;72967;43.674;6.976;2024-01-07T12:38:29;95027.28;;;12.09;55.32
83095;BME280;72967;43.674;6.976;2024-01-07T12:40:54;95034.75;;;12.16;56.72
83095;BME280;72967;43.674;6.976;2024-01-07T12:43:20;95005.28;;;12.06;55.86
83095;BME280;72967;43.674;6.976;2024-01-07T12:45:47;95024.53;;;12.09;58.09
83095;BME280;72967;43.674;6.976;2024-01-07T12:48:13;95024.13;;;12.07;57.70
83095;BME280;72967;43.674;6.976;2024-01-07T12:50:38;95027.28;;;12.09;57.81
83095;BME280;72967;43.674;6.976;2024-01-07T12:53:04;95024.91;;;12.15;55.46
83095;BME280;72967;43.674;6.976;2024-01-07T12:55:31;95028.44;;;12.22;54.46
83095;BME280;72967;43.674;6.976;2024-01-07T12:57:56;95032.34;;;12.25;55.80
83095;BME280;72967;43.674;6.976;2024-01-07T13:00:24;95026.44;;;12.26;57.07
83095;BME280;72967;43.674;6.976;2024-01-07T13:02:50;95028.41;;;12.26;57.22
83095;BME280;72967;43.674;6.976;2024-01-07T13:05:16;95030.75;;;12.31;57.01
83095;BME280;72967;43.674;6.976;2024-01-07T13:07:41;95031.56;;;12.24;57.39